sensor_id;sensor_type;location;lat;lon;timestamp;temperature;humidity
8557;DHT22;4316;53.840;10.762;2022-07-04T00:00:09;18.00;99.90
8557;DHT22;4316;53.840;10.762;2022-07-04T00:02:35;18.00;99.90
8557;DHT22;4316;53.840;10.762;2022-07-04T00:05:01;18.00;99.90
8557;DHT22;4316;53.840;10.762;2022-07-04T00:07:27;18.00;99.90
8557;DHT22;4316;53.840;10.762;2022-07-04T00:09:52;17.90;99.90
8557;DHT22;4316;53.840;10.762;2022-07-04T00:12:18;17.90;99.90
8557;DHT22;4316;53.840;10.762;2022-07-04T00:14:44;17.90;99.90
8557;DHT22;4316;53.840;10.762;2022-07-04T00:17:09;17.90;99.90
8557;DHT22;4316;53.840;10.762;2022-07-04T00:19:36;17.90;99.90
8557;DHT22;4316;53.840;10.762;2022-07-04T00:22:02;17.80;99.90
8557;DHT22;4316;53.840;10.762;2022-07-04T00:24:27;17.80;99.90
8557;DHT22;4316;53.840;10.762;2022-07-04T00:26:53;17.90;99.90
8557;DHT22;4316;53.840;10.762;2022-07-04T00:29:19;17.90;99.90
8557;DHT22;4316;53.840;10.762;2022-07-04T00:31:44;17.90;99.90
8557;DHT22;4316;53.840;10.762;2022-07-04T00:34:10;17.90;99.90
8557;DHT22;4316;53.840;10.762;2022-07-04T00:36:35;17.90;99.90
8557;DHT22;4316;53.840;10.762;2022-07-04T00:39:01;17.80;99.90
8557;DHT22;4316;53.840;10.762;2022-07-04T00:41:27;17.80;99.90
8557;DHT22;4316;53.840;10.762;2022-07-04T00:44:00;17.70;99.90
8557;DHT22;4316;53.840;10.762;2022-07-04T00:46:27;17.70;99.90
8557;DHT22;4316;53.840;10.762;2022-07-04T00:48:52;17.70;99.90
8557;DHT22;4316;53.840;10.762;2022-07-04T00:51:18;17.50;99.90
8557;DHT22;4316;53.840;10.762;2022-07-04T00:53:45;17.50;99.90
8557;DHT22;4316;53.840;10.762;2022-07-04T00:56:10;17.50;99.90
8557;DHT22;4316;53.840;10.762;2022-07-04T00:58:37;17.50;99.90
8557;DHT22;4316;53.840;10.762;2022-07-04T01:01:03;17.40;99.90
8557;DHT22;4316;53.840;10.762;2022-07-04T01:03:28;17.40;99.90
8557;DHT22;4316;53.840;10.762;2022-07-04T01:05:54;17.40;99.90
8557;DHT22;4316;53.840;10.762;2022-07-04T01:08:20;17.40;99.90
8557;DHT22;4316;53.840;10.762;2022-07-04T01:10:46;17.40;99.90
8557;DHT22;4316;53.840;10.762;2022-07-04T01:13:22;17.40;99.90
8557;DHT22;4316;53.840;10.762;2022-07-04T01:15:48;17.30;99.90
8557;DHT22;4316;53.840;10.762;2022-07-04T01:18:14;17.30;99.90
8557;DHT22;4316;53.840;10.762;2022-07-04T01:20:40;17.30;99.90
8557;DHT22;4316;53.840;10.762;2022-07-04T01:23:06;17.20;99.90
8557;DHT22;4316;53.840;10.762;2022-07-04T01:25:32;17.20;99.90
8557;DHT22;4316;53.840;10.762;2022-07-04T01:28:00;17.20;99.90
8557;DHT22;4316;53.840;10.762;2022-07-04T01:30:27;17.20;99.90
8557;DHT22;4316;53.840;10.762;2022-07-04T01:32:53;17.10;99.90
8557;DHT22;4316;53.840;10.762;2022-07-04T01:35:19;17.10;99.90
8557;DHT22;4316;53.840;10.762;2022-07-04T01:37:45;17.00;99.90
8557;DHT22;4316;53.840;10.762;2022-07-04T01:40:11;16.90;99.90
8557;DHT22;4316;53.840;10.762;2022-07-04T01:42:38;16.90;99.90
8557;DHT22;4316;53.840;10.762;2022-07-04T01:45:04;16.90;99.90
8557;DHT22;4316;53.840;10.762;2022-07-04T01:47:30;16.90;99.90
8557;DHT22;4316;53.840;10.762;2022-07-04T01:49:56;16.90;99.90
8557;DHT22;4316;53.840;10.762;2022-07-04T01:52:21;16.90;99.90
8557;DHT22;4316;53.840;10.762;2022-07-04T01:54:47;16.90;99.90
8557;DHT22;4316;53.840;10.762;2022-07-04T01:57:12;16.90;99.90
8557;DHT22;4316;53.840;10.762;2022-07-04T01:59:39;16.90;99.90
8557;DHT22;4316;53.840;10.762;2022-07-04T02:02:23;16.90;99.90
8557;DHT22;4316;53.840;10.762;2022-07-04T02:04:49;16.80;99.90
8557;DHT22;4316;53.840;10.762;2022-07-04T02:07:15;16.80;99.90
8557;DHT22;4316;53.840;10.762;2022-07-04T02:09:41;16.70;99.90
8557;DHT22;4316;53.840;10.762;2022-07-04T02:12:07;16.70;99.90
8557;DHT22;4316;53.840;10.762;2022-07-04T02:14:51;16.70;99.90
8557;DHT22;4316;53.840;10.762;2022-07-04T02:17:17;16.70;99.90
8557;DHT22;4316;53.840;10.762;2022-07-04T02:19:42;16.70;99.90
8557;DHT22;4316;53.840;10.762;2022-07-04T02:22:09;16.70;99.90
8557;DHT22;4316;53.840;10.762;2022-07-04T02:24:34;16.70;99.90
8557;DHT22;4316;53.840;10.762;2022-07-04T02:27:00;16.70;99.90
8557;DHT22;4316;53.840;10.762;2022-07-04T02:29:26;16.70;99.90
8557;DHT22;4316;53.840;10.762;2022-07-04T02:31:51;16.60;99.90
8557;DHT22;4316;53.840;10.762;2022-07-04T02:34:17;16.60;99.90
8557;DHT22;4316;53.840;10.762;2022-07-04T02:36:42;16.50;99.90
8557;DHT22;4316;53.840;10.762;2022-07-04T02:39:08;16.50;99.90
8557;DHT22;4316;53.840;10.762;2022-07-04T02:41:33;16.40;99.90
8557;DHT22;4316;53.840;10.762;2022-07-04T02:43:59;16.30;99.90
8557;DHT22;4316;53.840;10.762;2022-07-04T02:46:25;16.30;99.90
8557;DHT22;4316;53.840;10.762;2022-07-04T02:48:51;16.30;99.90
8557;DHT22;4316;53.840;10.762;2022-07-04T02:51:16;16.30;99.90
8557;DHT22;4316;53.840;10.762;2022-07-04T02:53:42;16.40;99.90
8557;DHT22;4316;53.840;10.762;2022-07-04T02:56:08;16.40;99.90
8557;DHT22;4316;53.840;10.762;2022-07-04T02:58:33;16.40;99.90
8557;DHT22;4316;53.840;10.762;2022-07-04T03:00:59;16.40;99.90
8557;DHT22;4316;53.840;10.762;2022-07-04T03:03:25;16.40;99.90
8557;DHT22;4316;53.840;10.762;2022-07-04T03:05:51;16.50;99.90
8557;DHT22;4316;53.840;10.762;2022-07-04T03:08:18;16.40;99.90
8557;DHT22;4316;53.840;10.762;2022-07-04T03:10:43;16.40;99.90
8557;DHT22;4316;53.840;10.762;2022-07-04T03:13:09;16.40;99.90
8557;DHT22;4316;53.840;10.762;2022-07-04T03:15:34;16.40;99.90
8557;DHT22;4316;53.840;10.762;2022-07-04T03:18:00;16.30;99.90
8557;DHT22;4316;53.840;10.762;2022-07-04T03:20:26;16.40;99.90
8557;DHT22;4316;53.840;10.762;2022-07-04T03:22:51;16.40;99.90
8557;DHT22;4316;53.840;10.762;2022-07-04T03:25:20;16.30;99.90
8557;DHT22;4316;53.840;10.762;2022-07-04T03:27:45;16.20;99.90
8557;DHT22;4316;53.840;10.762;2022-07-04T03:30:11;16.20;99.90
8557;DHT22;4316;53.840;10.762;2022-07-04T03:32:37;16.20;99.90
8557;DHT22;4316;53.840;10.762;2022-07-04T03:35:03;16.10;99.90
8557;DHT22;4316;53.840;10.762;2022-07-04T03:37:28;16.10;99.90
8557;DHT22;4316;53.840;10.762;2022-07-04T03:39:54;16.00;99.90
8557;DHT22;4316;53.840;10.762;2022-07-04T03:42:19;16.10;99.90
8557;DHT22;4316;53.840;10.762;2022-07-04T03:44:45;16.00;99.90
8557;DHT22;4316;53.840;10.762;2022-07-04T03:47:11;16.00;99.90
8557;DHT22;4316;53.840;10.762;2022-07-04T03:49:36;16.00;99.90
8557;DHT22;4316;53.840;10.762;2022-07-04T03:52:02;16.00;99.90
8557;DHT22;4316;53.840;10.762;2022-07-04T03:54:28;15.90;99.90
8557;DHT22;4316;53.840;10.762;2022-07-04T03:56:54;15.90;99.90
8557;DHT22;4316;53.840;10.762;2022-07-04T03:59:20;16.00;99.90
8557;DHT22;4316;53.840;10.762;2022-07-04T04:01:46;16.00;99.90
8557;DHT22;4316;53.840;10.762;2022-07-04T04:04:11;15.90;99.90
8557;DHT22;4316;53.840;10.762;2022-07-04T04:06:56;15.90;99.90
8557;DHT22;4316;53.840;10.762;2022-07-04T04:09:21;15.90;99.90
8557;DHT22;4316;53.840;10.762;2022-07-04T04:11:50;16.00;99.90
8557;DHT22;4316;53.840;10.762;2022-07-04T04:14:16;16.00;99.90
8557;DHT22;4316;53.840;10.762;2022-07-04T04:16:42;16.00;99.90
8557;DHT22;4316;53.840;10.762;2022-07-04T04:19:08;16.00;99.90
8557;DHT22;4316;53.840;10.762;2022-07-04T04:21:34;15.90;99.90
8557;DHT22;4316;53.840;10.762;2022-07-04T04:24:00;15.90;99.90
8557;DHT22;4316;53.840;10.762;2022-07-04T04:26:26;16.00;99.90
8557;DHT22;4316;53.840;10.762;2022-07-04T04:28:52;16.00;99.90
8557;DHT22;4316;53.840;10.762;2022-07-04T04:31:18;16.10;99.90
8557;DHT22;4316;53.840;10.762;2022-07-04T04:33:43;16.10;99.90
8557;DHT22;4316;53.840;10.762;2022-07-04T04:36:09;16.20;99.90
8557;DHT22;4316;53.840;10.762;2022-07-04T04:38:34;16.20;99.90
8557;DHT22;4316;53.840;10.762;2022-07-04T04:41:00;16.20;99.90
8557;DHT22;4316;53.840;10.762;2022-07-04T04:43:26;16.30;99.90
8557;DHT22;4316;53.840;10.762;2022-07-04T04:45:51;16.40;99.90
8557;DHT22;4316;53.840;10.762;2022-07-04T04:48:17;16.40;99.90
8557;DHT22;4316;53.840;10.762;2022-07-04T04:50:43;16.60;99.90
8557;DHT22;4316;53.840;10.762;2022-07-04T04:53:08;16.60;99.90
8557;DHT22;4316;53.840;10.762;2022-07-04T04:55:34;16.70;99.90
8557;DHT22;4316;53.840;10.762;2022-07-04T04:57:59;16.70;99.90
8557;DHT22;4316;53.840;10.762;2022-07-04T05:00:25;16.80;99.90
8557;DHT22;4316;53.840;10.762;2022-07-04T05:02:50;16.90;99.90
8557;DHT22;4316;53.840;10.762;2022-07-04T05:05:16;16.90;99.90
8557;DHT22;4316;53.840;10.762;2022-07-04T05:07:42;17.00;99.90
8557;DHT22;4316;53.840;10.762;2022-07-04T05:10:08;17.10;99.90
8557;DHT22;4316;53.840;10.762;2022-07-04T05:12:34;17.10;99.90
8557;DHT22;4316;53.840;10.762;2022-07-04T05:15:01;17.10;99.90
8557;DHT22;4316;53.840;10.762;2022-07-04T05:17:26;17.20;99.90
8557;DHT22;4316;53.840;10.762;2022-07-04T05:19:52;17.30;99.90
8557;DHT22;4316;53.840;10.762;2022-07-04T05:22:18;17.40;99.90
8557;DHT22;4316;53.840;10.762;2022-07-04T05:24:43;17.40;99.90
8557;DHT22;4316;53.840;10.762;2022-07-04T05:27:09;17.50;99.90
8557;DHT22;4316;53.840;10.762;2022-07-04T05:29:34;17.60;99.90
8557;DHT22;4316;53.840;10.762;2022-07-04T05:32:00;17.70;99.90
8557;DHT22;4316;53.840;10.762;2022-07-04T05:34:26;17.70;99.90
8557;DHT22;4316;53.840;10.762;2022-07-04T05:36:51;17.70;99.90
8557;DHT22;4316;53.840;10.762;2022-07-04T05:39:17;17.80;99.90
8557;DHT22;4316;53.840;10.762;2022-07-04T05:41:42;17.90;99.90
8557;DHT22;4316;53.840;10.762;2022-07-04T05:44:08;18.00;99.90
8557;DHT22;4316;53.840;10.762;2022-07-04T05:46:35;18.00;99.90
8557;DHT22;4316;53.840;10.762;2022-07-04T05:49:00;18.20;99.90
8557;DHT22;4316;53.840;10.762;2022-07-04T05:51:26;18.20;99.90
8557;DHT22;4316;53.840;10.762;2022-07-04T05:53:51;18.20;99.90
8557;DHT22;4316;53.840;10.762;2022-07-04T05:56:18;18.30;99.90
8557;DHT22;4316;53.840;10.762;2022-07-04T05:58:43;18.30;99.90
8557;DHT22;4316;53.840;10.762;2022-07-04T06:01:09;18.40;99.90
8557;DHT22;4316;53.840;10.762;2022-07-04T06:03:34;18.40;99.90
8557;DHT22;4316;53.840;10.762;2022-07-04T06:06:03;18.60;99.90
8557;DHT22;4316;53.840;10.762;2022-07-04T06:08:29;18.70;99.90
8557;DHT22;4316;53.840;10.762;2022-07-04T06:10:55;18.70;99.90
8557;DHT22;4316;53.840;10.762;2022-07-04T06:13:21;18.80;99.90
8557;DHT22;4316;53.840;10.762;2022-07-04T06:15:46;18.90;99.90
8557;DHT22;4316;53.840;10.762;2022-07-04T06:18:12;18.90;99.90
8557;DHT22;4316;53.840;10.762;2022-07-04T06:20:38;18.90;99.90
8557;DHT22;4316;53.840;10.762;2022-07-04T06:23:06;19.00;99.90
8557;DHT22;4316;53.840;10.762;2022-07-04T06:25:32;19.10;99.90
8557;DHT22;4316;53.840;10.762;2022-07-04T06:27:57;19.20;99.90
8557;DHT22;4316;53.840;10.762;2022-07-04T06:30:23;19.20;99.90
8557;DHT22;4316;53.840;10.762;2022-07-04T06:32:51;19.30;99.90
8557;DHT22;4316;53.840;10.762;2022-07-04T06:35:22;19.30;99.90
8557;DHT22;4316;53.840;10.762;2022-07-04T06:38:08;19.30;99.90
8557;DHT22;4316;53.840;10.762;2022-07-04T06:40:34;19.30;99.90
8557;DHT22;4316;53.840;10.762;2022-07-04T06:43:00;19.60;99.90
8557;DHT22;4316;53.840;10.762;2022-07-04T06:45:26;19.80;99.90
8557;DHT22;4316;53.840;10.762;2022-07-04T06:47:52;20.00;99.90
8557;DHT22;4316;53.840;10.762;2022-07-04T06:50:18;20.10;99.90
8557;DHT22;4316;53.840;10.762;2022-07-04T06:52:44;20.00;99.90
8557;DHT22;4316;53.840;10.762;2022-07-04T06:55:10;19.90;99.90
8557;DHT22;4316;53.840;10.762;2022-07-04T06:57:36;19.90;99.90
8557;DHT22;4316;53.840;10.762;2022-07-04T07:00:03;20.00;99.90
8557;DHT22;4316;53.840;10.762;2022-07-04T07:02:29;19.90;99.90
8557;DHT22;4316;53.840;10.762;2022-07-04T07:04:56;20.00;99.90
8557;DHT22;4316;53.840;10.762;2022-07-04T07:07:23;20.20;99.90
8557;DHT22;4316;53.840;10.762;2022-07-04T07:09:50;20.20;99.90
8557;DHT22;4316;53.840;10.762;2022-07-04T07:12:16;20.00;99.90
8557;DHT22;4316;53.840;10.762;2022-07-04T07:14:42;20.00;99.90
8557;DHT22;4316;53.840;10.762;2022-07-04T07:17:07;20.00;99.90
8557;DHT22;4316;53.840;10.762;2022-07-04T07:19:33;20.40;99.90
8557;DHT22;4316;53.840;10.762;2022-07-04T07:21:59;20.60;99.90
8557;DHT22;4316;53.840;10.762;2022-07-04T07:24:25;20.60;99.90
8557;DHT22;4316;53.840;10.762;2022-07-04T07:26:52;20.50;99.90
8557;DHT22;4316;53.840;10.762;2022-07-04T07:29:18;20.60;99.90
8557;DHT22;4316;53.840;10.762;2022-07-04T07:31:44;21.00;99.90
8557;DHT22;4316;53.840;10.762;2022-07-04T07:34:09;21.10;99.90
8557;DHT22;4316;53.840;10.762;2022-07-04T07:36:35;20.90;99.90
8557;DHT22;4316;53.840;10.762;2022-07-04T07:39:00;20.70;99.90
8557;DHT22;4316;53.840;10.762;2022-07-04T07:41:26;20.50;99.90
8557;DHT22;4316;53.840;10.762;2022-07-04T07:43:52;20.60;99.90
8557;DHT22;4316;53.840;10.762;2022-07-04T07:46:17;20.80;99.90
8557;DHT22;4316;53.840;10.762;2022-07-04T07:48:43;21.00;99.90
8557;DHT22;4316;53.840;10.762;2022-07-04T07:51:10;21.10;99.90
8557;DHT22;4316;53.840;10.762;2022-07-04T07:53:36;21.50;99.90
8557;DHT22;4316;53.840;10.762;2022-07-04T07:56:01;21.90;99.90
8557;DHT22;4316;53.840;10.762;2022-07-04T07:58:28;21.70;99.90
8557;DHT22;4316;53.840;10.762;2022-07-04T08:00:53;21.50;99.90
8557;DHT22;4316;53.840;10.762;2022-07-04T08:03:19;21.30;99.90
8557;DHT22;4316;53.840;10.762;2022-07-04T08:06:03;21.10;99.90
8557;DHT22;4316;53.840;10.762;2022-07-04T08:08:29;20.70;99.90
8557;DHT22;4316;53.840;10.762;2022-07-04T08:10:54;20.50;99.90
8557;DHT22;4316;53.840;10.762;2022-07-04T08:13:20;20.50;99.90
8557;DHT22;4316;53.840;10.762;2022-07-04T08:15:46;20.40;99.90
8557;DHT22;4316;53.840;10.762;2022-07-04T08:18:12;20.20;99.90
8557;DHT22;4316;53.840;10.762;2022-07-04T08:20:38;20.20;99.90
8557;DHT22;4316;53.840;10.762;2022-07-04T08:23:03;20.40;99.90
8557;DHT22;4316;53.840;10.762;2022-07-04T08:25:29;21.00;99.90
8557;DHT22;4316;53.840;10.762;2022-07-04T08:27:54;21.60;99.90
8557;DHT22;4316;53.840;10.762;2022-07-04T08:30:20;21.80;99.90
8557;DHT22;4316;53.840;10.762;2022-07-04T08:32:46;22.00;99.90
8557;DHT22;4316;53.840;10.762;2022-07-04T08:35:12;22.70;99.90
8557;DHT22;4316;53.840;10.762;2022-07-04T08:37:37;23.60;99.60
8557;DHT22;4316;53.840;10.762;2022-07-04T08:40:06;23.80;98.60
8557;DHT22;4316;53.840;10.762;2022-07-04T08:42:39;23.70;99.00
8557;DHT22;4316;53.840;10.762;2022-07-04T08:45:06;23.60;99.40
8557;DHT22;4316;53.840;10.762;2022-07-04T08:47:35;23.20;99.10
8557;DHT22;4316;53.840;10.762;2022-07-04T08:50:10;22.70;98.70
8557;DHT22;4316;53.840;10.762;2022-07-04T08:52:39;22.70;98.00
8557;DHT22;4316;53.840;10.762;2022-07-04T08:55:07;22.90;98.00
8557;DHT22;4316;53.840;10.762;2022-07-04T08:57:52;23.10;97.70
8557;DHT22;4316;53.840;10.762;2022-07-04T09:00:37;23.10;98.30
8557;DHT22;4316;53.840;10.762;2022-07-04T09:03:03;23.10;98.50
8557;DHT22;4316;53.840;10.762;2022-07-04T09:05:30;22.60;98.50
8557;DHT22;4316;53.840;10.762;2022-07-04T09:07:58;22.30;99.10
8557;DHT22;4316;53.840;10.762;2022-07-04T09:10:24;22.20;99.40
8557;DHT22;4316;53.840;10.762;2022-07-04T09:12:50;22.40;99.50
8557;DHT22;4316;53.840;10.762;2022-07-04T09:15:16;22.70;99.10
8557;DHT22;4316;53.840;10.762;2022-07-04T09:17:42;22.60;98.90
8557;DHT22;4316;53.840;10.762;2022-07-04T09:22:39;22.90;99.00
8557;DHT22;4316;53.840;10.762;2022-07-04T09:25:05;23.10;98.20
8557;DHT22;4316;53.840;10.762;2022-07-04T09:27:36;23.30;97.30
8557;DHT22;4316;53.840;10.762;2022-07-04T09:30:03;23.50;97.00
8557;DHT22;4316;53.840;10.762;2022-07-04T09:32:44;23.50;97.20
8557;DHT22;4316;53.840;10.762;2022-07-04T09:35:16;23.70;97.50
8557;DHT22;4316;53.840;10.762;2022-07-04T09:37:47;23.50;97.70
8557;DHT22;4316;53.840;10.762;2022-07-04T09:40:33;23.50;97.80
8557;DHT22;4316;53.840;10.762;2022-07-04T09:43:19;23.70;98.10
8557;DHT22;4316;53.840;10.762;2022-07-04T09:45:56;24.10;97.50
8557;DHT22;4316;53.840;10.762;2022-07-04T09:48:23;24.00;96.80
8557;DHT22;4316;53.840;10.762;2022-07-04T09:50:49;23.50;96.80
8557;DHT22;4316;53.840;10.762;2022-07-04T09:53:15;23.40;97.00
8557;DHT22;4316;53.840;10.762;2022-07-04T09:55:41;23.60;97.10
8557;DHT22;4316;53.840;10.762;2022-07-04T09:58:08;23.80;97.00
8557;DHT22;4316;53.840;10.762;2022-07-04T10:00:45;23.80;97.10
8557;DHT22;4316;53.840;10.762;2022-07-04T10:03:25;24.10;97.50
8557;DHT22;4316;53.840;10.762;2022-07-04T10:06:12;24.10;96.70
8557;DHT22;4316;53.840;10.762;2022-07-04T10:08:42;24.00;97.10
8557;DHT22;4316;53.840;10.762;2022-07-04T10:11:09;23.90;96.10
8557;DHT22;4316;53.840;10.762;2022-07-04T10:13:35;24.00;96.70
8557;DHT22;4316;53.840;10.762;2022-07-04T10:16:01;24.30;96.40
8557;DHT22;4316;53.840;10.762;2022-07-04T10:18:27;24.60;96.40
8557;DHT22;4316;53.840;10.762;2022-07-04T10:20:54;24.50;96.30
8557;DHT22;4316;53.840;10.762;2022-07-04T10:23:21;24.60;96.50
8557;DHT22;4316;53.840;10.762;2022-07-04T10:25:48;24.90;96.20
8557;DHT22;4316;53.840;10.762;2022-07-04T10:28:15;25.10;95.90
8557;DHT22;4316;53.840;10.762;2022-07-04T10:30:41;25.20;94.90
8557;DHT22;4316;53.840;10.762;2022-07-04T10:33:11;24.80;94.80
8557;DHT22;4316;53.840;10.762;2022-07-04T10:35:58;24.70;95.20
8557;DHT22;4316;53.840;10.762;2022-07-04T10:38:30;24.80;95.30
8557;DHT22;4316;53.840;10.762;2022-07-04T10:48:32;24.50;95.10
8557;DHT22;4316;53.840;10.762;2022-07-04T10:51:02;24.60;95.30
8557;DHT22;4316;53.840;10.762;2022-07-04T10:53:29;25.00;95.30
8557;DHT22;4316;53.840;10.762;2022-07-04T10:56:31;25.00;95.40
8557;DHT22;4316;53.840;10.762;2022-07-04T10:58:51;25.20;95.20
8557;DHT22;4316;53.840;10.762;2022-07-04T11:01:17;25.10;94.30
8557;DHT22;4316;53.840;10.762;2022-07-04T11:03:50;24.80;94.40
8557;DHT22;4316;53.840;10.762;2022-07-04T11:09:17;23.90;95.30
8557;DHT22;4316;53.840;10.762;2022-07-04T11:17:14;23.80;95.80
8557;DHT22;4316;53.840;10.762;2022-07-04T11:19:41;24.00;95.40
8557;DHT22;4316;53.840;10.762;2022-07-04T11:22:08;24.10;94.90
8557;DHT22;4316;53.840;10.762;2022-07-04T11:24:35;24.00;95.50
8557;DHT22;4316;53.840;10.762;2022-07-04T11:27:01;23.60;95.50
8557;DHT22;4316;53.840;10.762;2022-07-04T11:29:28;23.60;95.90
8557;DHT22;4316;53.840;10.762;2022-07-04T11:31:54;23.60;96.20
8557;DHT22;4316;53.840;10.762;2022-07-04T11:34:20;23.70;96.20
8557;DHT22;4316;53.840;10.762;2022-07-04T11:36:48;24.00;96.50
8557;DHT22;4316;53.840;10.762;2022-07-04T11:39:16;24.40;95.80
8557;DHT22;4316;53.840;10.762;2022-07-04T11:41:48;24.30;95.10
8557;DHT22;4316;53.840;10.762;2022-07-04T11:44:35;24.50;94.70
8557;DHT22;4316;53.840;10.762;2022-07-04T11:47:24;24.70;94.90
8557;DHT22;4316;53.840;10.762;2022-07-04T11:49:55;24.90;94.50
8557;DHT22;4316;53.840;10.762;2022-07-04T11:52:39;25.00;94.50
8557;DHT22;4316;53.840;10.762;2022-07-04T11:55:06;25.10;94.10
8557;DHT22;4316;53.840;10.762;2022-07-04T11:57:37;25.30;94.30
8557;DHT22;4316;53.840;10.762;2022-07-04T12:00:08;25.50;94.20
8557;DHT22;4316;53.840;10.762;2022-07-04T12:02:34;25.60;94.20
8557;DHT22;4316;53.840;10.762;2022-07-04T12:05:03;25.50;94.10
8557;DHT22;4316;53.840;10.762;2022-07-04T12:07:30;25.20;94.40
8557;DHT22;4316;53.840;10.762;2022-07-04T12:10:07;25.10;94.40
8557;DHT22;4316;53.840;10.762;2022-07-04T12:12:34;24.90;94.40
8557;DHT22;4316;53.840;10.762;2022-07-04T12:15:07;25.00;94.60
8557;DHT22;4316;53.840;10.762;2022-07-04T12:17:37;24.70;94.40
8557;DHT22;4316;53.840;10.762;2022-07-04T12:20:14;24.70;94.60
8557;DHT22;4316;53.840;10.762;2022-07-04T12:22:55;25.00;94.60
8557;DHT22;4316;53.840;10.762;2022-07-04T12:25:34;25.10;94.70
8557;DHT22;4316;53.840;10.762;2022-07-04T12:28:11;25.00;94.30
8557;DHT22;4316;53.840;10.762;2022-07-04T12:30:52;24.90;94.70
8557;DHT22;4316;53.840;10.762;2022-07-04T12:33:19;24.90;94.70
8557;DHT22;4316;53.840;10.762;2022-07-04T12:35:51;24.70;94.70
8557;DHT22;4316;53.840;10.762;2022-07-04T12:38:28;24.50;94.80
8557;DHT22;4316;53.840;10.762;2022-07-04T12:41:02;24.30;94.80
8557;DHT22;4316;53.840;10.762;2022-07-04T12:46:27;23.70;95.30
8557;DHT22;4316;53.840;10.762;2022-07-04T12:48:54;23.70;95.00
8557;DHT22;4316;53.840;10.762;2022-07-04T12:53:50;24.30;95.20
8557;DHT22;4316;53.840;10.762;2022-07-04T12:56:29;24.40;95.00
8557;DHT22;4316;53.840;10.762;2022-07-04T12:59:01;24.70;95.10
8557;DHT22;4316;53.840;10.762;2022-07-04T13:01:26;25.10;94.20
8557;DHT22;4316;53.840;10.762;2022-07-04T13:03:52;25.00;94.40
8557;DHT22;4316;53.840;10.762;2022-07-04T13:06:18;25.00;94.40
8557;DHT22;4316;53.840;10.762;2022-07-04T13:08:44;25.10;94.40
8557;DHT22;4316;53.840;10.762;2022-07-04T13:11:10;25.10;94.30
8557;DHT22;4316;53.840;10.762;2022-07-04T13:13:54;25.00;94.80
8557;DHT22;4316;53.840;10.762;2022-07-04T13:16:20;25.10;94.80
8557;DHT22;4316;53.840;10.762;2022-07-04T13:18:45;25.40;94.30
8557;DHT22;4316;53.840;10.762;2022-07-04T13:21:11;25.40;94.20
8557;DHT22;4316;53.840;10.762;2022-07-04T13:23:36;25.60;93.70
8557;DHT22;4316;53.840;10.762;2022-07-04T13:26:03;25.50;94.10
8557;DHT22;4316;53.840;10.762;2022-07-04T13:28:28;25.60;93.90
8557;DHT22;4316;53.840;10.762;2022-07-04T13:30:54;25.70;93.80
8557;DHT22;4316;53.840;10.762;2022-07-04T13:33:19;25.40;93.30
8557;DHT22;4316;53.840;10.762;2022-07-04T13:35:45;25.30;92.90
8557;DHT22;4316;53.840;10.762;2022-07-04T13:38:11;25.20;92.90
8557;DHT22;4316;53.840;10.762;2022-07-04T13:40:36;25.20;92.70
8557;DHT22;4316;53.840;10.762;2022-07-04T13:43:02;25.20;93.00
8557;DHT22;4316;53.840;10.762;2022-07-04T13:45:35;25.40;92.70
8557;DHT22;4316;53.840;10.762;2022-07-04T13:48:01;25.40;92.40
8557;DHT22;4316;53.840;10.762;2022-07-04T13:50:26;25.30;92.70
8557;DHT22;4316;53.840;10.762;2022-07-04T13:52:52;25.30;92.90
8557;DHT22;4316;53.840;10.762;2022-07-04T13:55:18;25.20;93.10
8557;DHT22;4316;53.840;10.762;2022-07-04T13:57:43;25.20;93.20
8557;DHT22;4316;53.840;10.762;2022-07-04T14:00:09;25.00;92.70
8557;DHT22;4316;53.840;10.762;2022-07-04T14:02:35;24.90;93.00
8557;DHT22;4316;53.840;10.762;2022-07-04T14:05:01;24.60;93.30
8557;DHT22;4316;53.840;10.762;2022-07-04T14:07:27;24.60;93.50
8557;DHT22;4316;53.840;10.762;2022-07-04T14:09:53;24.40;93.40
8557;DHT22;4316;53.840;10.762;2022-07-04T14:12:19;24.20;93.40
8557;DHT22;4316;53.840;10.762;2022-07-04T14:14:45;24.10;93.90
8557;DHT22;4316;53.840;10.762;2022-07-04T14:17:11;24.00;93.90
8557;DHT22;4316;53.840;10.762;2022-07-04T14:19:37;23.80;94.00
8557;DHT22;4316;53.840;10.762;2022-07-04T14:22:02;23.70;94.30
8557;DHT22;4316;53.840;10.762;2022-07-04T14:24:28;23.70;94.40
8557;DHT22;4316;53.840;10.762;2022-07-04T14:26:54;23.60;94.50
8557;DHT22;4316;53.840;10.762;2022-07-04T14:29:20;23.50;94.80
8557;DHT22;4316;53.840;10.762;2022-07-04T14:31:45;23.40;94.80
8557;DHT22;4316;53.840;10.762;2022-07-04T14:34:11;23.50;95.10
8557;DHT22;4316;53.840;10.762;2022-07-04T14:36:38;23.50;94.90
8557;DHT22;4316;53.840;10.762;2022-07-04T14:39:04;23.60;95.10
8557;DHT22;4316;53.840;10.762;2022-07-04T14:41:30;23.80;95.10
8557;DHT22;4316;53.840;10.762;2022-07-04T14:43:56;23.80;94.70
8557;DHT22;4316;53.840;10.762;2022-07-04T14:46:22;23.80;95.00
8557;DHT22;4316;53.840;10.762;2022-07-04T14:48:47;24.00;95.10
8557;DHT22;4316;53.840;10.762;2022-07-04T14:51:13;24.20;95.10
8557;DHT22;4316;53.840;10.762;2022-07-04T14:53:38;24.30;94.90
8557;DHT22;4316;53.840;10.762;2022-07-04T14:56:04;24.40;94.80
8557;DHT22;4316;53.840;10.762;2022-07-04T14:58:31;24.50;94.30
8557;DHT22;4316;53.840;10.762;2022-07-04T15:00:56;24.50;94.90
8557;DHT22;4316;53.840;10.762;2022-07-04T15:03:22;24.50;94.60
8557;DHT22;4316;53.840;10.762;2022-07-04T15:05:48;24.50;94.40
8557;DHT22;4316;53.840;10.762;2022-07-04T15:08:14;24.50;94.70
8557;DHT22;4316;53.840;10.762;2022-07-04T15:10:40;24.30;95.10
8557;DHT22;4316;53.840;10.762;2022-07-04T15:13:06;24.20;94.90
8557;DHT22;4316;53.840;10.762;2022-07-04T15:15:32;24.10;95.10
8557;DHT22;4316;53.840;10.762;2022-07-04T15:17:57;24.00;95.30
8557;DHT22;4316;53.840;10.762;2022-07-04T15:20:23;24.00;95.30
8557;DHT22;4316;53.840;10.762;2022-07-04T15:23:07;23.90;95.50
8557;DHT22;4316;53.840;10.762;2022-07-04T15:25:51;23.70;95.60
8557;DHT22;4316;53.840;10.762;2022-07-04T15:28:17;23.50;96.00
8557;DHT22;4316;53.840;10.762;2022-07-04T15:30:42;23.60;95.90
8557;DHT22;4316;53.840;10.762;2022-07-04T15:33:08;23.40;96.20
8557;DHT22;4316;53.840;10.762;2022-07-04T15:35:43;23.50;96.00
8557;DHT22;4316;53.840;10.762;2022-07-04T15:38:09;23.50;96.00
8557;DHT22;4316;53.840;10.762;2022-07-04T15:40:35;23.60;96.40
8557;DHT22;4316;53.840;10.762;2022-07-04T15:43:00;23.70;96.20
8557;DHT22;4316;53.840;10.762;2022-07-04T15:45:26;23.90;95.90
8557;DHT22;4316;53.840;10.762;2022-07-04T15:47:52;24.00;95.80
8557;DHT22;4316;53.840;10.762;2022-07-04T15:50:17;24.10;95.50
8557;DHT22;4316;53.840;10.762;2022-07-04T15:52:43;24.40;95.50
8557;DHT22;4316;53.840;10.762;2022-07-04T15:55:09;24.50;95.30
8557;DHT22;4316;53.840;10.762;2022-07-04T15:57:34;24.60;95.40
8557;DHT22;4316;53.840;10.762;2022-07-04T16:00:00;24.60;95.20
8557;DHT22;4316;53.840;10.762;2022-07-04T16:02:26;24.50;95.00
8557;DHT22;4316;53.840;10.762;2022-07-04T16:04:52;24.40;95.20
8557;DHT22;4316;53.840;10.762;2022-07-04T16:07:17;24.30;95.10
8557;DHT22;4316;53.840;10.762;2022-07-04T16:09:44;24.30;95.30